Halesworth, United Kingdom
Current Conditions -  °F | °C
As of 9:50 AM on Friday 28 Nov 2014 (Local Time) from EGSD Reporting Station
Haze Haze  
Wind Chill: 52°   Ceiling: 600
Heat Index: 52°   Visibility: 2.5mi
Dew Point: 50°   Wind: 10mph
Humidity: 94%   Direction: 110°ESE
Pressure: 29.71"   Gusts: NA
Location:  52.35°N, 1.5°E
Report Text: EGSD 280950Z 11009KT 4000 BR BKN006 11/10 Q1006
Loading
Personal Weather Stations






























Interactive Weather Map New forecast layout! Learn more

10-Day Weather Forecast

Advertisements
Track Severe Weather on mobile